Time;durP1;ratioP1;P1;durP2;ratioP2;P2;SDS_P1;SDS_P2;PMS_P1;PMS_P2;Temp;Humidity;BMP_temperature;BMP_pressure;BME280_temperature;BME280_humidity;BME280_pressure;Samples;Min_cycle;Max_cycle;Signal;HPM_P1;HPM_P2
2022/03/12 00:02:22;;;;;;;9.70;5.63;;;;;;;;;;5058841;28;20060;-87
2022/03/12 00:04:48;;;;;;;10.73;6.22;;;;;;;;;;5059671;28;20074;-89
2022/03/12 00:07:15;;;;;;;6.78;5.20;;;;;;;;;;5054911;28;20036;-89
2022/03/12 00:09:41;;;;;;;7.90;5.57;;;;;;;;;;5061790;28;20044;-90
2022/03/12 00:12:07;;;;;;;9.10;5.30;;;;;;;;;;5064596;28;20491;-89
2022/03/12 00:14:34;;;;;;;7.75;5.70;;;;;;;;;;5063679;28;20035;-90
2022/03/12 00:17:00;;;;;;;11.05;5.95;;;;;;;;;;5060388;28;20112;-88
2022/03/12 00:19:25;;;;;;;7.18;4.80;;;;;;;;;;5059486;28;20438;-88
2022/03/12 00:21:51;;;;;;;7.22;4.53;;;;;;;;;;5056675;28;20116;-88
2022/03/12 00:24:17;;;;;;;9.38;4.45;;;;;;;;;;5059137;28;20021;-90
2022/03/12 00:26:46;;;;;;;10.43;5.85;;;;;;;;;;5054965;28;20384;-89
2022/03/12 00:29:15;;;;;;;11.38;5.82;;;;;;;;;;5063669;28;20021;-89
2022/03/12 00:31:45;;;;;;;9.85;5.88;;;;;;;;;;5052289;28;20025;-88
2022/03/12 00:34:11;;;;;;;8.93;5.57;;;;;;;;;;5055669;28;20063;-88
2022/03/12 00:36:36;;;;;;;8.52;5.93;;;;;;;;;;5054856;28;20433;-89
2022/03/12 00:39:03;;;;;;;7.85;5.60;;;;;;;;;;5058532;28;20379;-91
2022/03/12 00:41:29;;;;;;;10.15;6.07;;;;;;;;;;5057666;28;20029;-92
2022/03/12 00:43:54;;;;;;;11.80;5.93;;;;;;;;;;5068315;28;20028;-89
2022/03/12 00:46:20;;;;;;;11.85;6.50;;;;;;;;;;5058815;28;20036;-91
2022/03/12 00:48:46;;;;;;;11.82;6.95;;;;;;;;;;5065134;28;20491;-89
2022/03/12 00:51:11;;;;;;;12.73;7.18;;;;;;;;;;5058454;28;20037;-90
2022/03/12 00:53:39;;;;;;;15.10;8.25;;;;;;;;;;5066714;28;20032;-89
2022/03/12 00:56:06;;;;;;;9.35;6.60;;;;;;;;;;5063674;28;20031;-91
2022/03/12 00:58:32;;;;;;;12.85;6.40;;;;;;;;;;5059194;28;20612;-88
2022/03/12 01:00:57;;;;;;;10.88;6.90;;;;;;;;;;5064863;28;20052;-89
2022/03/12 01:03:24;;;;;;;14.25;7.93;;;;;;;;;;5064848;28;20081;-87
2022/03/12 01:05:49;;;;;;;14.13;7.07;;;;;;;;;;5063342;28;20032;-90
2022/03/12 01:08:19;;;;;;;15.52;10.20;;;;;;;;;;5068459;28;20028;-88
2022/03/12 01:10:45;;;;;;;;;;;;;;;;;;5064879;28;20056;-87
2022/03/12 01:13:11;;;;;;;13.80;7.22;;;;;;;;;;5056586;28;19917;-88
2022/03/12 01:15:37;;;;;;;9.10;5.90;;;;;;;;;;5066608;28;20035;-89
2022/03/12 01:18:03;;;;;;;10.40;6.13;;;;;;;;;;5062441;28;20036;-88
2022/03/12 01:20:29;;;;;;;10.57;6.35;;;;;;;;;;5060705;28;20538;-88
2022/03/12 01:22:55;;;;;;;11.77;6.10;;;;;;;;;;5061471;28;20028;-87
2022/03/12 01:25:20;;;;;;;9.57;5.90;;;;;;;;;;5066916;28;20028;-88
2022/03/12 01:27:46;;;;;;;11.15;7.25;;;;;;;;;;5071300;28;20029;-87
2022/03/12 01:30:12;;;;;;;10.00;6.00;;;;;;;;;;5061896;28;20048;-88
2022/03/12 01:32:38;;;;;;;13.15;7.00;;;;;;;;;;5062652;28;20115;-88
2022/03/12 01:35:05;;;;;;;9.88;6.50;;;;;;;;;;5061008;28;20086;-87
2022/03/12 01:37:31;;;;;;;10.98;5.13;;;;;;;;;;5069965;28;20039;-88
2022/03/12 01:39:57;;;;;;;9.30;5.47;;;;;;;;;;5058503;28;20404;-87
2022/03/12 01:42:27;;;;;;;8.23;4.82;;;;;;;;;;5066566;28;20032;-88
2022/03/12 01:44:53;;;;;;;;;;;;;;;;;;5061364;28;20027;-90
2022/03/12 01:47:20;;;;;;;6.22;4.05;;;;;;;;;;5061462;28;20024;-90
2022/03/12 01:49:48;;;;;;;7.00;4.30;;;;;;;;;;5054941;28;20021;-89
2022/03/12 01:52:14;;;;;;;8.65;4.85;;;;;;;;;;5052682;28;20534;-89
2022/03/12 01:54:41;;;;;;;8.30;4.28;;;;;;;;;;5060044;28;20024;-89
2022/03/12 01:57:09;;;;;;;8.68;5.20;;;;;;;;;;5069137;28;20107;-89
2022/03/12 01:59:35;;;;;;;7.85;4.25;;;;;;;;;;5060091;28;20374;-87
2022/03/12 02:02:02;;;;;;;8.50;4.72;;;;;;;;;;5056826;28;20021;-87
2022/03/12 02:04:29;;;;;;;8.75;4.78;;;;;;;;;;5058804;28;20025;-88
2022/03/12 02:06:58;;;;;;;6.07;4.18;;;;;;;;;;5064477;28;20025;-88
2022/03/12 02:09:23;;;;;;;8.70;4.68;;;;;;;;;;5060493;28;20124;-88
2022/03/12 02:11:52;;;;;;;8.48;3.90;;;;;;;;;;5061535;28;20103;-91
2022/03/12 02:14:25;;;;;;;6.15;3.40;;;;;;;;;;5057146;28;20025;-89
2022/03/12 02:16:57;;;;;;;7.57;2.78;;;;;;;;;;5064634;28;20029;-87
2022/03/12 02:19:25;;;;;;;3.70;2.33;;;;;;;;;;5054630;28;20028;-88
2022/03/12 02:21:52;;;;;;;7.32;3.05;;;;;;;;;;5060689;28;20024;-89
2022/03/12 02:24:20;;;;;;;5.32;3.10;;;;;;;;;;5053935;28;20415;-88
2022/03/12 02:26:46;;;;;;;6.13;2.92;;;;;;;;;;5065763;28;20052;-88
2022/03/12 02:29:16;;;;;;;5.00;2.22;;;;;;;;;;5061825;28;20086;-87
2022/03/12 02:31:46;;;;;;;6.10;2.70;;;;;;;;;;5067428;28;20055;-85
2022/03/12 02:34:12;;;;;;;4.20;2.63;;;;;;;;;;5064808;28;20112;-87
2022/03/12 02:36:39;;;;;;;4.65;2.55;;;;;;;;;;5059611;28;20464;-88
2022/03/12 02:39:07;;;;;;;5.72;2.40;;;;;;;;;;5060725;28;20028;-89
2022/03/12 02:41:33;;;;;;;3.83;2.38;;;;;;;;;;5053652;28;20028;-89
2022/03/12 02:43:59;;;;;;;4.35;2.42;;;;;;;;;;5056513;28;20059;-88
2022/03/12 02:46:28;;;;;;;3.05;2.15;;;;;;;;;;5062653;28;20059;-88
2022/03/12 02:48:54;;;;;;;5.03;2.80;;;;;;;;;;5062396;28;20111;-88
2022/03/12 02:51:25;;;;;;;3.63;2.08;;;;;;;;;;5064439;28;20444;-88
2022/03/12 02:53:51;;;;;;;4.65;2.40;;;;;;;;;;5057043;28;20037;-87
2022/03/12 02:56:18;;;;;;;4.20;2.60;;;;;;;;;;5058214;28;20382;-88
2022/03/12 02:58:44;;;;;;;4.65;2.28;;;;;;;;;;5062017;28;20025;-87
2022/03/12 03:01:14;;;;;;;6.25;2.47;;;;;;;;;;5061361;28;20362;-88
2022/03/12 03:03:41;;;;;;;4.35;2.42;;;;;;;;;;5058822;28;20013;-87
2022/03/12 03:06:08;;;;;;;3.28;1.92;;;;;;;;;;5054372;28;20057;-87
2022/03/12 03:08:36;;;;;;;3.28;2.17;;;;;;;;;;5054073;28;20028;-87
2022/03/12 03:11:16;;;;;;;4.53;2.28;;;;;;;;;;5057760;28;20135;-87
2022/03/12 03:13:44;;;;;;;;;;;;;;;;;;5060556;28;20033;-88
2022/03/12 03:16:21;;;;;;;2.92;1.95;;;;;;;;;;5062361;28;19912;-88
2022/03/12 03:18:51;;;;;;;3.47;1.80;;;;;;;;;;5068078;28;20032;-90
2022/03/12 03:21:18;;;;;;;4.63;2.47;;;;;;;;;;5064594;28;20029;-89
2022/03/12 03:23:45;;;;;;;4.13;2.17;;;;;;;;;;5056364;28;20024;-90
2022/03/12 03:26:11;;;;;;;2.65;1.77;;;;;;;;;;5060054;28;20025;-89
2022/03/12 03:28:37;;;;;;;3.70;2.17;;;;;;;;;;5066253;28;20472;-91
2022/03/12 03:31:06;;;;;;;4.03;2.90;;;;;;;;;;5062929;28;20032;-90
2022/03/12 03:33:32;;;;;;;4.50;2.28;;;;;;;;;;5055213;28;20025;-90
2022/03/12 03:35:59;;;;;;;3.25;2.13;;;;;;;;;;5053017;28;20052;-89
2022/03/12 03:38:24;;;;;;;4.55;1.92;;;;;;;;;;5050074;28;20107;-88
2022/03/12 03:40:51;;;;;;;4.07;2.00;;;;;;;;;;5061551;28;20159;-88
2022/03/12 03:43:21;;;;;;;3.65;2.30;;;;;;;;;;5063301;28;20032;-89
2022/03/12 03:45:50;;;;;;;3.80;2.28;;;;;;;;;;5068809;28;20122;-90
2022/03/12 03:48:17;;;;;;;2.58;1.77;;;;;;;;;;5053622;28;20028;-89
2022/03/12 03:50:45;;;;;;;2.92;1.80;;;;;;;;;;5049581;28;20119;-87
2022/03/12 03:53:15;;;;;;;2.60;2.03;;;;;;;;;;5058263;28;20024;-86
2022/03/12 03:55:42;;;;;;;3.95;1.92;;;;;;;;;;5069920;28;20407;-87
2022/03/12 03:58:07;;;;;;;3.67;2.08;;;;;;;;;;5062160;28;20036;-87
2022/03/12 04:00:33;;;;;;;3.20;2.05;;;;;;;;;;5062144;28;20029;-89
2022/03/12 04:03:02;;;;;;;3.33;1.67;;;;;;;;;;5070733;28;20027;-88
2022/03/12 04:05:34;;;;;;;5.15;2.65;;;;;;;;;;5064552;28;20017;-87
2022/03/12 04:08:02;;;;;;;4.65;1.98;;;;;;;;;;5058139;28;20032;-87
2022/03/12 04:10:28;;;;;;;4.03;2.28;;;;;;;;;;5050459;28;20417;-87
2022/03/12 04:12:55;;;;;;;3.63;2.30;;;;;;;;;;5053870;28;20029;-87
2022/03/12 04:15:21;;;;;;;4.85;2.80;;;;;;;;;;5054024;28;20056;-89
2022/03/12 04:17:50;;;;;;;3.33;1.90;;;;;;;;;;5051805;28;20016;-88
2022/03/12 04:20:18;;;;;;;3.20;2.10;;;;;;;;;;5068508;28;20103;-89
2022/03/12 04:22:45;;;;;;;5.95;2.72;;;;;;;;;;5062173;28;20106;-89
2022/03/12 04:25:12;;;;;;;5.00;2.55;;;;;;;;;;5071969;28;20021;-89
2022/03/12 04:27:38;;;;;;;5.45;2.97;;;;;;;;;;5068670;28;20039;-88
2022/03/12 04:30:05;;;;;;;5.78;2.92;;;;;;;;;;5075563;28;20024;-87
2022/03/12 04:32:31;;;;;;;6.05;2.88;;;;;;;;;;5061949;28;20388;-90
2022/03/12 04:34:57;;;;;;;12.10;6.20;;;;;;;;;;5065515;28;20468;-88
2022/03/12 04:37:22;;;;;;;5.97;4.07;;;;;;;;;;5061653;28;20083;-87
2022/03/12 04:39:49;;;;;;;5.60;2.80;;;;;;;;;;5056750;28;20074;-88
2022/03/12 04:42:18;;;;;;;4.50;2.67;;;;;;;;;;5066109;28;20464;-88
2022/03/12 04:44:43;;;;;;;3.55;2.15;;;;;;;;;;5073950;28;20056;-88
2022/03/12 04:47:12;;;;;;;5.75;3.50;;;;;;;;;;5064828;28;20059;-86
2022/03/12 04:49:38;;;;;;;5.03;2.63;;;;;;;;;;5066342;28;20094;-89
2022/03/12 04:52:04;;;;;;;5.85;3.50;;;;;;;;;;5060847;28;20480;-89
2022/03/12 04:54:33;;;;;;;5.20;1.92;;;;;;;;;;5064138;28;20024;-87
2022/03/12 04:56:59;;;;;;;5.43;2.72;;;;;;;;;;5068130;28;20032;-87
2022/03/12 04:59:24;;;;;;;3.13;2.28;;;;;;;;;;5058782;28;20028;-87
2022/03/12 05:01:50;;;;;;;2.17;1.63;;;;;;;;;;5068732;28;20496;-86
2022/03/12 05:04:15;;;;;;;3.53;1.95;;;;;;;;;;5060350;28;20087;-87
2022/03/12 05:06:41;;;;;;;4.85;2.22;;;;;;;;;;5071133;28;20080;-90
2022/03/12 05:09:06;;;;;;;6.82;3.45;;;;;;;;;;5074158;28;20031;-87
2022/03/12 05:11:33;;;;;;;5.55;3.17;;;;;;;;;;5067470;28;20439;-88
2022/03/12 05:13:59;;;;;;;5.95;2.90;;;;;;;;;;5055661;28;20061;-89
2022/03/12 05:16:25;;;;;;;5.68;3.40;;;;;;;;;;5055849;28;20130;-89
2022/03/12 05:18:51;;;;;;;5.88;3.47;;;;;;;;;;5059683;28;20464;-86
2022/03/12 05:21:16;;;;;;;6.30;3.70;;;;;;;;;;5068491;28;20078;-89
2022/03/12 05:23:42;;;;;;;8.23;4.47;;;;;;;;;;5064860;28;20024;-88
2022/03/12 05:26:07;;;;;;;6.65;4.22;;;;;;;;;;5061854;28;20591;-89
2022/03/12 05:28:35;;;;;;;8.40;4.45;;;;;;;;;;5059987;28;20029;-89
2022/03/12 05:31:04;;;;;;;8.32;5.05;;;;;;;;;;5063366;28;20415;-88
2022/03/12 05:33:31;;;;;;;10.63;6.38;;;;;;;;;;5062180;28;20028;-90
2022/03/12 05:35:56;;;;;;;8.93;5.18;;;;;;;;;;5063462;28;20033;-89
2022/03/12 05:38:23;;;;;;;10.52;6.95;;;;;;;;;;5068077;28;20117;-89
2022/03/12 05:40:50;;;;;;;10.75;6.90;;;;;;;;;;5068498;28;20559;-89
2022/03/12 05:43:17;;;;;;;9.20;5.65;;;;;;;;;;5069212;28;20055;-90
2022/03/12 05:45:48;;;;;;;11.00;7.13;;;;;;;;;;5061874;28;20033;-90
2022/03/12 05:48:15;;;;;;;12.38;5.85;;;;;;;;;;5058098;28;20040;-88
2022/03/12 05:50:43;;;;;;;8.77;6.22;;;;;;;;;;5071973;28;20036;-88
2022/03/12 05:53:09;;;;;;;9.07;5.72;;;;;;;;;;5067567;28;20024;-89
2022/03/12 05:55:38;;;;;;;9.70;5.43;;;;;;;;;;5059053;28;20460;-88
2022/03/12 05:58:04;;;;;;;7.75;5.47;;;;;;;;;;5064913;28;20024;-89
2022/03/12 06:00:31;;;;;;;7.97;5.53;;;;;;;;;;5067876;28;20036;-89
2022/03/12 06:02:59;;;;;;;7.07;4.35;;;;;;;;;;5062741;28;20032;-89
2022/03/12 06:05:24;;;;;;;8.98;4.72;;;;;;;;;;5061916;28;20036;-89
2022/03/12 06:07:52;;;;;;;14.40;5.50;;;;;;;;;;5068977;28;20029;-90
2022/03/12 06:10:23;;;;;;;8.32;4.95;;;;;;;;;;5061770;28;20043;-89
2022/03/12 06:12:51;;;;;;;9.43;5.82;;;;;;;;;;5068316;28;20032;-87
2022/03/12 06:15:18;;;;;;;9.05;5.40;;;;;;;;;;5063409;28;20024;-89
2022/03/12 06:17:49;;;;;;;10.63;6.63;;;;;;;;;;5052553;28;20033;-87
2022/03/12 06:20:16;;;;;;;7.68;3.80;;;;;;;;;;5052752;28;20472;-87
2022/03/12 06:22:42;;;;;;;5.03;2.53;;;;;;;;;;5051781;28;20033;-86
2022/03/12 06:25:10;;;;;;;8.50;4.38;;;;;;;;;;5051075;28;20495;-86
2022/03/12 06:27:37;;;;;;;7.00;4.55;;;;;;;;;;5052558;28;20037;-89
2022/03/12 06:30:08;;;;;;;9.38;4.60;;;;;;;;;;5053067;28;20931;-89
2022/03/12 06:32:34;;;;;;;9.18;5.28;;;;;;;;;;5050779;28;20021;-88
2022/03/12 06:35:00;;;;;;;7.82;4.43;;;;;;;;;;5052468;28;20416;-88
2022/03/12 06:37:26;;;;;;;9.10;4.20;;;;;;;;;;5052063;28;20029;-90
2022/03/12 06:39:51;;;;;;;7.68;4.22;;;;;;;;;;5052142;28;20028;-90
2022/03/12 06:42:17;;;;;;;7.97;4.32;;;;;;;;;;5053698;28;20056;-90
2022/03/12 06:44:43;;;;;;;7.05;4.10;;;;;;;;;;5045007;28;20362;-87
2022/03/12 06:47:09;;;;;;;8.18;3.85;;;;;;;;;;5048615;28;20431;-86
2022/03/12 06:49:38;;;;;;;6.40;4.18;;;;;;;;;;5047659;28;20040;-87
2022/03/12 06:52:06;;;;;;;7.90;4.68;;;;;;;;;;5053529;28;20413;-86
2022/03/12 06:54:32;;;;;;;8.93;4.28;;;;;;;;;;5053538;28;20025;-86
2022/03/12 06:56:57;;;;;;;9.55;5.55;;;;;;;;;;5053162;28;20027;-86
2022/03/12 06:59:23;;;;;;;7.05;4.60;;;;;;;;;;5055392;28;20028;-86
2022/03/12 07:01:49;;;;;;;9.73;5.15;;;;;;;;;;5052777;28;20090;-86
2022/03/12 07:04:14;;;;;;;14.07;8.98;;;;;;;;;;5059197;28;20163;-86
2022/03/12 07:06:41;;;;;;;8.15;4.85;;;;;;;;;;5049368;28;20507;-86
2022/03/12 07:09:06;;;;;;;7.38;4.93;;;;;;;;;;5049628;28;20500;-83
2022/03/12 07:11:32;;;;;;;9.07;4.53;;;;;;;;;;5047605;28;20147;-83
2022/03/12 07:13:59;;;;;;;7.95;4.45;;;;;;;;;;5059677;28;20051;-85
2022/03/12 07:16:25;;;;;;;7.32;4.50;;;;;;;;;;5065946;28;20090;-84
2022/03/12 07:18:50;;;;;;;13.15;5.68;;;;;;;;;;5062351;28;20468;-85
2022/03/12 07:21:16;;;;;;;9.35;5.53;;;;;;;;;;5060395;28;20025;-84
2022/03/12 07:23:41;;;;;;;8.98;4.90;;;;;;;;;;5054132;28;20043;-86
2022/03/12 07:26:08;;;;;;;9.40;4.45;;;;;;;;;;5048642;28;20563;-85
2022/03/12 07:28:34;;;;;;;11.88;6.22;;;;;;;;;;5055678;28;20515;-85
2022/03/12 07:31:00;;;;;;;9.25;4.90;;;;;;;;;;5054708;28;20036;-85
2022/03/12 07:33:26;;;;;;;7.07;4.32;;;;;;;;;;5058862;28;20033;-85
2022/03/12 07:35:52;;;;;;;15.35;7.47;;;;;;;;;;5066910;28;20485;-85
2022/03/12 07:38:18;;;;;;;8.68;5.15;;;;;;;;;;5059485;28;20059;-85
2022/03/12 07:40:43;;;;;;;8.93;4.40;;;;;;;;;;5065591;28;20029;-88
2022/03/12 07:43:09;;;;;;;9.85;5.32;;;;;;;;;;5058244;28;20031;-85
2022/03/12 07:45:34;;;;;;;8.65;4.45;;;;;;;;;;5051050;28;20120;-85
2022/03/12 07:48:00;;;;;;;10.10;5.70;;;;;;;;;;5055035;28;20027;-85
2022/03/12 07:50:26;;;;;;;7.93;4.53;;;;;;;;;;5050113;28;20028;-84
2022/03/12 07:52:53;;;;;;;9.27;5.22;;;;;;;;;;5050903;28;20116;-87
2022/03/12 07:55:18;;;;;;;8.80;5.10;;;;;;;;;;5051525;28;20052;-86
2022/03/12 07:57:45;;;;;;;7.38;4.80;;;;;;;;;;5050084;28;20033;-86
2022/03/12 08:00:13;;;;;;;10.30;4.97;;;;;;;;;;5054273;28;20033;-85
2022/03/12 08:02:39;;;;;;;8.75;4.72;;;;;;;;;;5050708;28;20496;-86
2022/03/12 08:05:05;;;;;;;7.80;4.38;;;;;;;;;;5050738;28;20021;-86
2022/03/12 08:07:32;;;;;;;8.27;5.25;;;;;;;;;;5054250;28;20492;-85
2022/03/12 08:09:59;;;;;;;7.10;4.70;;;;;;;;;;5051118;28;20091;-85
2022/03/12 08:12:31;;;;;;;7.60;4.68;;;;;;;;;;5059935;28;20044;-83
2022/03/12 08:15:05;;;;;;;6.57;3.90;;;;;;;;;;5066977;28;20027;-84
2022/03/12 08:17:31;;;;;;;7.90;4.07;;;;;;;;;;5055666;28;20036;-85
2022/03/12 08:19:57;;;;;;;6.65;3.65;;;;;;;;;;5053766;28;20024;-84
2022/03/12 08:22:22;;;;;;;7.53;3.67;;;;;;;;;;5068184;28;20028;-85
2022/03/12 08:24:49;;;;;;;11.02;5.72;;;;;;;;;;5047794;28;20388;-86
2022/03/12 08:27:15;;;;;;;8.73;4.80;;;;;;;;;;5052630;28;20488;-85
2022/03/12 08:29:44;;;;;;;5.93;3.30;;;;;;;;;;5053316;28;20029;-88
2022/03/12 08:32:11;;;;;;;5.80;3.78;;;;;;;;;;5051040;28;20411;-87
2022/03/12 08:34:37;;;;;;;7.07;3.97;;;;;;;;;;5041182;28;20060;-87
2022/03/12 08:37:04;;;;;;;7.22;3.33;;;;;;;;;;5049393;28;20029;-86
2022/03/12 08:39:29;;;;;;;7.90;3.58;;;;;;;;;;5045312;28;20060;-85
2022/03/12 08:41:55;;;;;;;9.68;4.82;;;;;;;;;;5040682;28;20041;-87
2022/03/12 08:44:21;;;;;;;8.18;4.03;;;;;;;;;;5049194;28;20116;-85
2022/03/12 08:46:47;;;;;;;6.40;3.97;;;;;;;;;;5050430;28;20148;-85
2022/03/12 08:49:14;;;;;;;9.13;4.30;;;;;;;;;;5054894;28;20927;-85
2022/03/12 08:51:41;;;;;;;5.72;3.58;;;;;;;;;;5048526;28;20377;-86
2022/03/12 08:54:07;;;;;;;9.18;5.55;;;;;;;;;;5049171;28;20399;-86
2022/03/12 08:56:33;;;;;;;8.27;4.72;;;;;;;;;;5045457;28;20035;-85
2022/03/12 08:58:59;;;;;;;6.80;4.63;;;;;;;;;;5051562;28;20036;-86
2022/03/12 09:01:25;;;;;;;7.63;4.85;;;;;;;;;;5051989;28;20247;-89
2022/03/12 09:03:51;;;;;;;6.90;3.55;;;;;;;;;;5056345;28;20025;-85
2022/03/12 09:06:18;;;;;;;7.68;4.00;;;;;;;;;;5055165;28;20032;-86
2022/03/12 09:08:45;;;;;;;8.00;4.43;;;;;;;;;;5060483;28;20036;-87
2022/03/12 09:11:10;;;;;;;8.32;4.75;;;;;;;;;;5050729;28;20048;-86
2022/03/12 09:13:36;;;;;;;13.32;6.40;;;;;;;;;;5053056;28;20489;-87
2022/03/12 09:16:02;;;;;;;8.25;4.28;;;;;;;;;;5054019;28;20039;-88
2022/03/12 09:18:28;;;;;;;5.32;3.13;;;;;;;;;;5048866;28;20107;-84
2022/03/12 09:20:54;;;;;;;8.90;4.35;;;;;;;;;;5053000;28;20075;-88
2022/03/12 09:23:21;;;;;;;10.38;6.18;;;;;;;;;;5046544;28;20029;-86
2022/03/12 09:25:49;;;;;;;9.55;4.05;;;;;;;;;;5055495;28;20537;-85
2022/03/12 09:28:15;;;;;;;11.30;6.55;;;;;;;;;;5046607;28;20021;-85
2022/03/12 09:30:41;;;;;;;7.50;4.88;;;;;;;;;;5043087;28;20033;-85
2022/03/12 09:33:07;;;;;;;6.82;4.07;;;;;;;;;;5042955;28;20089;-85
2022/03/12 09:35:34;;;;;;;6.47;3.35;;;;;;;;;;5040423;28;20068;-87
2022/03/12 09:38:01;;;;;;;7.30;3.85;;;;;;;;;;5042733;28;20048;-85
2022/03/12 09:40:28;;;;;;;3.85;2.63;;;;;;;;;;5049017;28;20037;-85
2022/03/12 09:42:54;;;;;;;4.75;3.10;;;;;;;;;;5045054;28;20033;-85
2022/03/12 09:45:23;;;;;;;5.57;3.13;;;;;;;;;;5042645;28;20358;-84
2022/03/12 09:47:50;;;;;;;4.50;3.08;;;;;;;;;;5046936;28;20025;-88
2022/03/12 09:50:15;;;;;;;6.10;2.65;;;;;;;;;;5041901;28;20057;-86
2022/03/12 09:52:41;;;;;;;8.75;4.28;;;;;;;;;;5046805;28;20071;-87
2022/03/12 09:55:08;;;;;;;5.07;3.03;;;;;;;;;;5051904;28;20445;-86
2022/03/12 09:57:34;;;;;;;6.63;3.38;;;;;;;;;;5048069;28;20382;-86
2022/03/12 10:00:01;;;;;;;5.95;3.35;;;;;;;;;;5051419;28;20031;-86
2022/03/12 10:02:26;;;;;;;10.23;8.70;;;;;;;;;;5047195;28;20029;-86
2022/03/12 10:04:53;;;;;;;6.13;3.17;;;;;;;;;;5040415;28;20124;-88
2022/03/12 10:07:19;;;;;;;5.68;3.50;;;;;;;;;;5046965;28;20155;-86
2022/03/12 10:09:44;;;;;;;7.55;4.45;;;;;;;;;;5043253;28;20132;-86
2022/03/12 10:12:10;;;;;;;4.80;3.28;;;;;;;;;;5042475;28;20036;-83
2022/03/12 10:14:35;;;;;;;5.72;3.00;;;;;;;;;;5055022;28;20029;-84
2022/03/12 10:17:02;;;;;;;7.10;2.95;;;;;;;;;;5047482;28;20040;-86
2022/03/12 10:19:30;;;;;;;9.27;4.18;;;;;;;;;;5046334;28;20163;-85
2022/03/12 10:21:56;;;;;;;7.03;3.25;;;;;;;;;;5042314;28;20495;-86
2022/03/12 10:24:23;;;;;;;4.00;2.88;;;;;;;;;;5047503;28;20032;-84
2022/03/12 10:26:49;;;;;;;6.60;3.45;;;;;;;;;;5050279;28;20029;-86
2022/03/12 10:29:14;;;;;;;4.78;2.92;;;;;;;;;;5043653;28;20519;-86
2022/03/12 10:31:41;;;;;;;4.28;2.80;;;;;;;;;;5044956;28;20021;-83
2022/03/12 10:34:21;;;;;;;7.57;3.72;;;;;;;;;;5046925;28;20036;-85
2022/03/12 10:36:48;;;;;;;5.85;3.50;;;;;;;;;;5042319;28;20477;-87
2022/03/12 10:39:14;;;;;;;4.90;3.13;;;;;;;;;;5053475;28;20105;-86
2022/03/12 10:41:41;;;;;;;6.75;4.13;;;;;;;;;;5041726;28;20032;-86
2022/03/12 10:44:06;;;;;;;6.03;3.67;;;;;;;;;;5055590;28;20032;-86
2022/03/12 10:46:34;;;;;;;5.78;3.75;;;;;;;;;;5062304;28;20044;-86
2022/03/12 10:49:03;;;;;;;6.57;3.72;;;;;;;;;;5053932;28;20029;-86
2022/03/12 10:51:40;;;;;;;6.38;3.97;;;;;;;;;;5060699;28;20074;-85
2022/03/12 10:54:10;;;;;;;7.97;3.80;;;;;;;;;;5052799;28;20028;-85
2022/03/12 10:56:42;;;;;;;;;;;;;;;;;;5056318;28;20031;-83
2022/03/12 10:59:29;;;;;;;7.65;4.10;;;;;;;;;;5063790;28;19977;-83
2022/03/12 11:01:57;;;;;;;7.47;4.10;;;;;;;;;;5050022;28;20020;-84
2022/03/12 11:04:29;;;;;;;4.72;3.58;;;;;;;;;;5053855;28;20044;-84
2022/03/12 11:06:57;;;;;;;5.55;3.55;;;;;;;;;;5062758;28;20016;-83
2022/03/12 11:09:35;;;;;;;4.93;3.25;;;;;;;;;;5065870;28;20045;-84
2022/03/12 11:12:00;;;;;;;6.53;3.78;;;;;;;;;;5058303;28;20089;-86
2022/03/12 11:14:29;;;;;;;8.55;3.20;;;;;;;;;;5057764;28;20036;-84
2022/03/12 11:16:55;;;;;;;6.77;3.30;;;;;;;;;;5061467;28;20029;-84
2022/03/12 11:19:40;;;;;;;5.70;3.22;;;;;;;;;;5062508;28;20112;-84
2022/03/12 11:22:16;;;;;;;4.85;3.58;;;;;;;;;;5069795;28;20025;-85
2022/03/12 11:24:48;;;;;;;4.32;3.33;;;;;;;;;;5055856;28;20074;-84
2022/03/12 11:27:27;;;;;;;6.57;3.35;;;;;;;;;;5051772;28;20029;-83
2022/03/12 11:30:03;;;;;;;5.60;3.45;;;;;;;;;;5044501;28;20028;-84
2022/03/12 11:32:33;;;;;;;7.80;4.35;;;;;;;;;;5060034;28;20040;-84
2022/03/12 11:35:10;;;;;;;7.10;3.90;;;;;;;;;;5044323;28;20032;-84
2022/03/12 11:37:38;;;;;;;3.45;2.78;;;;;;;;;;5057628;28;20090;-84
2022/03/12 11:40:12;;;;;;;4.18;2.38;;;;;;;;;;5066767;28;20105;-85
2022/03/12 11:42:39;;;;;;;5.22;3.08;;;;;;;;;;5060448;28;20028;-85
2022/03/12 11:45:09;;;;;;;9.40;3.83;;;;;;;;;;5061575;28;20017;-84
2022/03/12 11:47:37;;;;;;;4.45;2.50;;;;;;;;;;5068434;28;20024;-85
2022/03/12 11:50:05;;;;;;;4.55;2.97;;;;;;;;;;5060187;28;20091;-85
2022/03/12 11:52:32;;;;;;;4.35;3.25;;;;;;;;;;5057625;28;20032;-83
2022/03/12 11:55:00;;;;;;;4.35;2.53;;;;;;;;;;5052313;28;20079;-84
2022/03/12 11:57:35;;;;;;;5.05;2.75;;;;;;;;;;5049856;28;20033;-85
2022/03/12 12:00:05;;;;;;;5.25;2.85;;;;;;;;;;5059164;28;20048;-85
2022/03/12 12:02:35;;;;;;;6.85;3.28;;;;;;;;;;5057996;28;20031;-86
2022/03/12 12:05:11;;;;;;;4.00;2.85;;;;;;;;;;5064978;28;20063;-86
2022/03/12 12:07:38;;;;;;;5.47;3.08;;;;;;;;;;5062789;28;20096;-85
2022/03/12 12:10:07;;;;;;;5.85;3.50;;;;;;;;;;5064031;28;20052;-86
2022/03/12 12:12:34;;;;;;;4.28;3.03;;;;;;;;;;5059697;28;20079;-84
2022/03/12 12:15:02;;;;;;;5.88;3.08;;;;;;;;;;5062923;28;20081;-86
2022/03/12 12:17:29;;;;;;;4.43;3.22;;;;;;;;;;5061883;28;20021;-84
2022/03/12 12:19:55;;;;;;;6.28;3.47;;;;;;;;;;5059593;28;20025;-83
2022/03/12 12:22:21;;;;;;;7.80;4.18;;;;;;;;;;5058822;28;20036;-85
2022/03/12 12:24:51;;;;;;;6.65;4.07;;;;;;;;;;5058005;28;20029;-84
2022/03/12 12:27:18;;;;;;;;;;;;;;;;;;5053404;28;20104;-84
2022/03/12 12:29:54;;;;;;;5.95;3.45;;;;;;;;;;5063960;28;19928;-85
2022/03/12 12:32:25;;;;;;;5.90;3.75;;;;;;;;;;5049493;28;20025;-84
2022/03/12 12:35:11;;;;;;;10.45;3.53;;;;;;;;;;5056449;28;20542;-85
2022/03/12 12:37:47;;;;;;;6.57;3.45;;;;;;;;;;5073514;28;20464;-84
2022/03/12 12:40:19;;;;;;;5.63;3.80;;;;;;;;;;5072039;28;20028;-84
2022/03/12 12:42:45;;;;;;;5.68;3.70;;;;;;;;;;5054147;28;20033;-85
2022/03/12 12:45:14;;;;;;;5.03;3.58;;;;;;;;;;5056825;28;20049;-83
2022/03/12 12:47:41;;;;;;;4.30;2.88;;;;;;;;;;5048621;28;20029;-85
2022/03/12 12:50:21;;;;;;;7.80;3.72;;;;;;;;;;5054207;28;20036;-84
2022/03/12 12:53:09;;;;;;;6.07;3.80;;;;;;;;;;5056047;28;20127;-85
2022/03/12 12:55:35;;;;;;;6.68;4.20;;;;;;;;;;5055652;28;20029;-84
2022/03/12 12:58:01;;;;;;;5.20;3.83;;;;;;;;;;5051248;28;20025;-86
2022/03/12 13:00:26;;;;;;;5.43;3.88;;;;;;;;;;5055679;28;20024;-83
2022/03/12 13:02:52;;;;;;;4.70;3.53;;;;;;;;;;5057724;28;20036;-84
2022/03/12 13:05:18;;;;;;;4.78;3.97;;;;;;;;;;5053419;28;20469;-84
2022/03/12 13:08:02;;;;;;;5.55;4.10;;;;;;;;;;5047949;28;20060;-85
2022/03/12 13:10:29;;;;;;;5.85;4.25;;;;;;;;;;5044162;28;20409;-85
2022/03/12 13:13:08;;;;;;;6.03;3.88;;;;;;;;;;5041105;28;20108;-83
2022/03/12 13:15:39;;;;;;;9.07;5.03;;;;;;;;;;5051278;28;20079;-83
2022/03/12 13:18:19;;;;;;;6.85;5.13;;;;;;;;;;5059224;28;20051;-83
2022/03/12 13:20:52;;;;;;;6.00;4.03;;;;;;;;;;5046427;28;20104;-84
2022/03/12 13:23:32;;;;;;;7.15;4.55;;;;;;;;;;5041627;28;20455;-86
2022/03/12 13:25:59;;;;;;;6.20;4.22;;;;;;;;;;5048234;28;20484;-83
2022/03/12 13:28:45;;;;;;;8.32;4.45;;;;;;;;;;5049457;28;20116;-84
2022/03/12 13:31:23;;;;;;;6.07;4.40;;;;;;;;;;5045928;28;20048;-84
2022/03/12 13:34:02;;;;;;;6.25;3.60;;;;;;;;;;5050895;28;20504;-83
2022/03/12 13:36:39;;;;;;;6.23;4.20;;;;;;;;;;5046502;28;20481;-86
2022/03/12 13:39:07;;;;;;;5.72;4.15;;;;;;;;;;5051953;28;20021;-85
2022/03/12 13:41:34;;;;;;;6.28;4.05;;;;;;;;;;5057203;28;20032;-85
2022/03/12 13:44:00;;;;;;;11.02;5.35;;;;;;;;;;5056871;28;20029;-85
2022/03/12 13:46:30;;;;;;;7.50;5.05;;;;;;;;;;5051922;28;20082;-85
2022/03/12 13:49:11;;;;;;;6.78;4.20;;;;;;;;;;5051233;28;20079;-86
2022/03/12 13:51:48;;;;;;;5.32;3.95;;;;;;;;;;5062061;28;20030;-85
2022/03/12 13:54:15;;;;;;;5.68;3.80;;;;;;;;;;5061629;28;20036;-85
2022/03/12 13:56:43;;;;;;;6.63;4.53;;;;;;;;;;5051528;28;20384;-86
2022/03/12 13:59:32;;;;;;;7.45;4.32;;;;;;;;;;5059059;28;20024;-86
2022/03/12 14:02:00;;;;;;;7.93;4.07;;;;;;;;;;5063095;28;20035;-86
2022/03/12 14:04:29;;;;;;;6.72;3.70;;;;;;;;;;5052802;28;20415;-90
2022/03/12 14:06:54;;;;;;;9.73;5.28;;;;;;;;;;5057590;28;20043;-87
2022/03/12 14:09:23;;;;;;;10.07;6.50;;;;;;;;;;5071215;28;20407;-85
2022/03/12 14:11:57;;;;;;;9.80;6.47;;;;;;;;;;5064786;28;20043;-86
2022/03/12 14:14:25;;;;;;;10.55;6.13;;;;;;;;;;5050753;28;20033;-87
2022/03/12 14:16:56;;;;;;;8.68;5.72;;;;;;;;;;5049490;28;20036;-86
2022/03/12 14:19:23;;;;;;;7.25;4.90;;;;;;;;;;5049743;28;20033;-83
2022/03/12 14:21:56;;;;;;;10.45;7.25;;;;;;;;;;5050414;28;20033;-82
2022/03/12 14:24:23;;;;;;;36.05;15.50;;;;;;;;;;5048304;28;20024;-83
2022/03/12 14:26:50;;;;;;;9.38;6.50;;;;;;;;;;5050827;28;21086;-86
2022/03/12 14:29:24;;;;;;;19.45;11.32;;;;;;;;;;5050322;28;20110;-86
2022/03/12 14:31:50;;;;;;;8.85;5.82;;;;;;;;;;5047237;28;20481;-86
2022/03/12 14:34:16;;;;;;;6.72;4.60;;;;;;;;;;5047919;28;20021;-85
2022/03/12 14:36:43;;;;;;;7.10;5.13;;;;;;;;;;5050104;28;20017;-82
2022/03/12 14:39:16;;;;;;;7.15;4.30;;;;;;;;;;5066087;28;20036;-83
2022/03/12 14:41:44;;;;;;;5.93;4.53;;;;;;;;;;5059098;28;20090;-85
2022/03/12 14:44:11;;;;;;;7.07;4.10;;;;;;;;;;5050511;28;20461;-84
2022/03/12 14:46:44;;;;;;;8.23;5.22;;;;;;;;;;5049287;28;20384;-87
2022/03/12 14:49:29;;;;;;;7.55;4.63;;;;;;;;;;5060592;28;20519;-84